createdAt,value
2023-01-11T00:00:56.903Z,9.60
2023-01-11T00:03:23.913Z,9.70
2023-01-11T00:05:55.195Z,9.70
2023-01-11T00:08:24.466Z,9.70
2023-01-11T00:10:51.867Z,9.80
2023-01-11T00:13:19.763Z,9.80
2023-01-11T00:15:46.990Z,9.90
2023-01-11T00:18:14.041Z,9.90
2023-01-11T00:20:42.443Z,9.90
2023-01-11T00:23:10.052Z,10.00
2023-01-11T00:25:37.891Z,10.00
2023-01-11T00:28:06.338Z,10.00
2023-01-11T00:30:35.440Z,10.00
2023-01-11T00:33:02.698Z,10.00
2023-01-11T00:35:32.232Z,10.00
2023-01-11T00:37:59.546Z,10.00
2023-01-11T00:40:27.133Z,10.10
2023-01-11T00:43:12.985Z,10.00
2023-01-11T00:46:18.580Z,10.00
2023-01-11T00:48:45.603Z,10.00
2023-01-11T00:51:12.838Z,10.00
2023-01-11T00:53:39.940Z,9.90
2023-01-11T00:56:07.595Z,9.90
2023-01-11T00:58:34.710Z,9.90
2023-01-11T01:01:07.851Z,9.90
2023-01-11T01:03:34.887Z,9.90
2023-01-11T01:06:02.148Z,9.90
2023-01-11T01:08:29.269Z,9.90
2023-01-11T01:10:56.453Z,9.90
2023-01-11T01:13:42.166Z,9.90
2023-01-11T01:16:09.182Z,9.90
2023-01-11T01:18:36.284Z,9.90
2023-01-11T01:21:03.878Z,9.90
2023-01-11T01:23:31.024Z,9.90
2023-01-11T01:25:58.119Z,9.90
2023-01-11T01:28:25.233Z,9.90
2023-01-11T01:30:52.444Z,9.90
2023-01-11T01:33:19.825Z,9.90
2023-01-11T01:35:47.159Z,9.90
2023-01-11T01:38:14.329Z,10.00
2023-01-11T01:40:43.669Z,10.00
2023-01-11T01:43:16.945Z,10.00
2023-01-11T01:45:44.152Z,10.00
2023-01-11T01:48:16.653Z,10.00
2023-01-11T01:50:55.256Z,10.10
2023-01-11T01:53:31.780Z,10.10
2023-01-11T01:56:01.669Z,10.10
2023-01-11T01:58:38.820Z,10.20
2023-01-11T02:01:25.129Z,10.10
2023-01-11T02:03:53.121Z,10.10
2023-01-11T02:06:22.824Z,10.20
2023-01-11T02:09:00.393Z,10.20
2023-01-11T02:11:31.036Z,10.20
2023-01-11T02:14:06.974Z,10.30
2023-01-11T02:16:34.041Z,10.30
2023-01-11T02:19:01.737Z,10.30
2023-01-11T02:22:08.380Z,10.30
2023-01-11T02:25:12.728Z,10.30
2023-01-11T02:28:07.805Z,10.40
2023-01-11T02:31:06.476Z,10.40
2023-01-11T02:34:02.205Z,10.40
2023-01-11T02:37:19.859Z,10.40
2023-01-11T02:40:07.277Z,10.40
2023-01-11T02:43:09.952Z,10.40
2023-01-11T02:46:25.168Z,10.50
2023-01-11T02:49:13.972Z,10.50
2023-01-11T02:51:54.656Z,10.50
2023-01-11T02:54:24.244Z,10.50
2023-01-11T02:56:58.831Z,10.60
2023-01-11T02:59:33.139Z,10.60
2023-01-11T03:02:00.626Z,10.60
2023-01-11T03:04:34.776Z,10.60
2023-01-11T03:07:45.633Z,10.60
2023-01-11T03:10:43.396Z,10.60
2023-01-11T03:13:44.288Z,10.70
2023-01-11T03:16:28.182Z,10.60
2023-01-11T03:19:17.575Z,10.70
2023-01-11T03:21:54.974Z,10.70
2023-01-11T03:24:55.584Z,10.60
2023-01-11T03:27:43.331Z,10.70
2023-01-11T03:30:58.103Z,10.60
2023-01-11T03:33:34.960Z,10.60
2023-01-11T03:36:29.041Z,10.70
2023-01-11T03:39:52.276Z,10.60
2023-01-11T03:42:23.648Z,10.60
2023-01-11T03:44:55.730Z,10.70
2023-01-11T03:47:25.963Z,10.70
2023-01-11T03:50:00.016Z,10.60
2023-01-11T03:52:34.995Z,10.70
2023-01-11T03:55:07.160Z,10.70
2023-01-11T03:57:39.675Z,10.70
2023-01-11T04:00:08.931Z,10.70
2023-01-11T04:02:41.169Z,10.70
2023-01-11T04:05:10.814Z,10.70
2023-01-11T04:07:38.452Z,10.70
2023-01-11T04:10:06.810Z,10.80
2023-01-11T04:12:34.087Z,10.80
2023-01-11T04:15:03.155Z,10.80
2023-01-11T04:17:30.220Z,10.80
2023-01-11T04:19:57.540Z,10.80
2023-01-11T04:22:24.525Z,10.80
2023-01-11T04:24:51.629Z,10.90
2023-01-11T04:27:20.033Z,10.90
2023-01-11T04:29:47.027Z,10.90
2023-01-11T04:32:14.037Z,10.90
2023-01-11T04:34:41.313Z,10.90
2023-01-11T04:37:09.152Z,10.90
2023-01-11T04:39:36.286Z,10.90
2023-01-11T04:42:19.380Z,10.90
2023-01-11T04:44:51.474Z,10.90
2023-01-11T04:47:22.357Z,10.90
2023-01-11T04:49:51.576Z,11.00
2023-01-11T04:52:21.188Z,10.90
2023-01-11T04:54:48.872Z,11.00
2023-01-11T04:57:17.742Z,10.90
2023-01-11T04:59:46.860Z,11.00
2023-01-11T05:02:15.575Z,11.00
2023-01-11T05:04:42.992Z,11.00
2023-01-11T05:07:11.326Z,11.00
2023-01-11T05:09:38.779Z,11.00
2023-01-11T05:12:06.482Z,11.00
2023-01-11T05:14:33.458Z,11.00
2023-01-11T05:17:00.761Z,11.10
2023-01-11T05:19:27.786Z,11.10
2023-01-11T05:21:54.755Z,11.10
2023-01-11T05:24:21.888Z,11.10
2023-01-11T05:26:50.252Z,11.20
2023-01-11T05:29:19.273Z,11.20
2023-01-11T05:31:46.735Z,11.20
2023-01-11T05:34:14.412Z,11.20
2023-01-11T05:36:42.613Z,11.20
2023-01-11T05:39:12.495Z,11.20
2023-01-11T05:41:40.045Z,11.20
2023-01-11T05:44:30.326Z,11.20
2023-01-11T05:46:57.687Z,11.20
2023-01-11T05:49:24.924Z,11.20
2023-01-11T05:51:56.134Z,11.10
2023-01-11T05:54:23.201Z,11.10
2023-01-11T05:56:50.525Z,11.10
2023-01-11T05:59:17.603Z,11.10
2023-01-11T06:01:44.655Z,11.10
2023-01-11T06:04:12.111Z,11.10
2023-01-11T06:06:39.310Z,11.10
2023-01-11T06:09:06.333Z,11.10
2023-01-11T06:11:33.348Z,11.10
2023-01-11T06:14:00.852Z,11.10
2023-01-11T06:16:28.150Z,11.00
2023-01-11T06:18:55.940Z,11.10
2023-01-11T06:21:25.144Z,11.10
2023-01-11T06:23:52.356Z,11.10
2023-01-11T06:26:22.596Z,11.00
2023-01-11T06:28:50.596Z,11.00
2023-01-11T06:31:18.907Z,11.00
2023-01-11T06:33:47.317Z,11.00
2023-01-11T06:36:15.767Z,10.90
2023-01-11T06:38:44.186Z,10.90
2023-01-11T06:41:12.382Z,10.80
2023-01-11T06:43:41.897Z,10.80
2023-01-11T06:46:14.767Z,10.70
2023-01-11T06:48:43.348Z,10.70
2023-01-11T06:51:13.504Z,10.70
2023-01-11T06:53:42.792Z,10.70
2023-01-11T06:56:16.696Z,10.60
2023-01-11T06:58:46.778Z,10.60
2023-01-11T07:01:14.328Z,10.50
2023-01-11T07:03:41.794Z,10.50
2023-01-11T07:06:09.013Z,10.50
2023-01-11T07:08:36.166Z,10.40
2023-01-11T07:11:03.133Z,10.40
2023-01-11T07:13:30.384Z,10.40
2023-01-11T07:15:58.467Z,10.40
2023-01-11T07:18:25.631Z,10.40
2023-01-11T07:20:52.728Z,10.30
2023-01-11T07:23:19.981Z,10.30
2023-01-11T07:25:49.792Z,10.30
2023-01-11T07:28:17.452Z,10.30
2023-01-11T07:30:57.571Z,10.30
2023-01-11T07:33:27.049Z,10.30
2023-01-11T07:35:54.469Z,10.30
2023-01-11T07:38:22.479Z,10.20
2023-01-11T07:40:49.754Z,10.20
2023-01-11T07:43:19.410Z,10.20
2023-01-11T07:45:49.737Z,10.10
2023-01-11T07:48:26.124Z,10.10
2023-01-11T07:50:54.017Z,10.10
2023-01-11T07:53:25.748Z,10.00
2023-01-11T07:55:55.058Z,10.00
2023-01-11T07:58:22.815Z,9.90
2023-01-11T08:00:49.893Z,9.90
2023-01-11T08:03:17.199Z,9.90
2023-01-11T08:05:48.896Z,9.90
2023-01-11T08:08:15.983Z,9.90
2023-01-11T08:10:43.038Z,10.00
2023-01-11T08:13:32.349Z,9.90
2023-01-11T08:16:00.175Z,9.90
2023-01-11T08:18:27.493Z,9.90
2023-01-11T08:20:54.721Z,9.80
2023-01-11T08:23:22.030Z,9.80
2023-01-11T08:25:49.210Z,9.70
2023-01-11T08:28:16.231Z,9.70
2023-01-11T08:30:44.786Z,9.70
2023-01-11T08:33:12.417Z,9.70
2023-01-11T08:35:40.350Z,9.60
2023-01-11T08:38:08.424Z,9.60
2023-01-11T08:40:36.556Z,9.60
2023-01-11T08:43:03.790Z,9.60
2023-01-11T08:45:30.856Z,9.50
2023-01-11T08:48:00.149Z,9.60
2023-01-11T08:50:27.578Z,9.60
2023-01-11T08:52:54.593Z,9.60
2023-01-11T08:55:21.801Z,9.60
2023-01-11T08:57:48.876Z,9.60
2023-01-11T09:00:16.412Z,9.70
2023-01-11T09:02:45.427Z,9.70
2023-01-11T09:05:12.747Z,9.70
2023-01-11T09:07:40.028Z,9.70
2023-01-11T09:10:07.829Z,9.70
2023-01-11T09:12:35.336Z,9.70
2023-01-11T09:15:02.448Z,9.60
2023-01-11T09:17:29.508Z,9.60
2023-01-11T09:19:56.484Z,9.50
2023-01-11T09:22:23.665Z,9.50
2023-01-11T09:24:51.012Z,9.50
2023-01-11T09:27:19.280Z,9.50
2023-01-11T09:29:46.635Z,9.40
2023-01-11T09:32:13.773Z,9.40
2023-01-11T09:34:42.820Z,9.40
2023-01-11T09:37:09.927Z,9.40
2023-01-11T09:39:37.256Z,9.30
2023-01-11T09:42:37.410Z,9.30
2023-01-11T09:45:27.983Z,9.20
2023-01-11T09:48:11.796Z,9.20
2023-01-11T09:50:45.912Z,9.10
2023-01-11T09:53:20.689Z,9.10
2023-01-11T09:55:52.316Z,9.10
2023-01-11T09:58:54.264Z,9.10
2023-01-11T10:01:49.559Z,9.10
2023-01-11T10:04:43.074Z,9.10
2023-01-11T10:18:31.448Z,9.20
2023-01-11T10:18:57.901Z,9.30
2023-01-11T10:21:46.546Z,9.40
2023-01-11T10:24:37.326Z,9.50
2023-01-11T10:27:17.758Z,9.60
2023-01-11T10:29:57.783Z,9.60
2023-01-11T10:33:03.466Z,9.60
2023-01-11T10:36:22.406Z,9.70
2023-01-11T10:40:00.661Z,9.80
2023-01-11T10:42:33.652Z,9.70
2023-01-11T10:45:23.718Z,9.60
2023-01-11T10:48:01.453Z,9.60
2023-01-11T10:50:48.574Z,9.60
2023-01-11T10:53:34.890Z,9.70
2023-01-11T10:56:32.573Z,9.70
2023-01-11T10:59:34.876Z,9.70
2023-01-11T11:02:58.294Z,9.80
2023-01-11T11:05:52.741Z,9.80
2023-01-11T11:08:48.382Z,9.80
2023-01-11T11:11:55.344Z,9.80
2023-01-11T11:15:04.772Z,9.80
2023-01-11T11:17:37.960Z,9.70
2023-01-11T11:20:20.101Z,9.90
2023-01-11T11:22:54.243Z,9.90
2023-01-11T11:25:41.405Z,9.90
2023-01-11T11:28:33.999Z,9.90
2023-01-11T11:31:07.367Z,9.90
2023-01-11T11:33:39.955Z,9.90
2023-01-11T11:36:09.821Z,10.00
2023-01-11T11:38:40.784Z,10.00
2023-01-11T11:41:13.283Z,10.00
2023-01-11T11:43:44.100Z,10.00
2023-01-11T11:46:18.770Z,10.00
2023-01-11T11:49:27.315Z,10.00
2023-01-11T11:51:55.542Z,10.00
2023-01-11T11:54:48.114Z,10.00
2023-01-11T11:57:27.323Z,10.10
2023-01-11T12:00:34.885Z,10.10
2023-01-11T12:03:16.818Z,10.20
2023-01-11T12:06:05.086Z,10.20
2023-01-11T12:08:35.758Z,10.30
2023-01-11T12:11:07.806Z,10.30
2023-01-11T12:13:38.360Z,10.40
2023-01-11T12:16:20.997Z,10.40
2023-01-11T12:18:48.372Z,10.50
2023-01-11T12:21:23.774Z,10.50
2023-01-11T12:24:23.759Z,10.50
2023-01-11T12:27:12.172Z,10.40
2023-01-11T12:29:50.123Z,10.40
2023-01-11T12:32:30.592Z,10.40
2023-01-11T12:35:05.936Z,10.40
2023-01-11T12:37:54.425Z,10.40
2023-01-11T12:40:43.676Z,10.40
2023-01-11T12:43:41.547Z,10.40
2023-01-11T12:46:49.555Z,10.40
2023-01-11T12:50:08.531Z,10.50
2023-01-11T12:52:50.991Z,10.60
2023-01-11T12:56:23.368Z,10.60
2023-01-11T12:59:22.197Z,10.50
2023-01-11T13:02:01.210Z,10.60
2023-01-11T13:05:00.333Z,10.50
2023-01-11T13:08:21.926Z,10.50
2023-01-11T13:11:10.263Z,10.50
2023-01-11T13:14:22.467Z,10.50
2023-01-11T13:17:28.221Z,10.40
2023-01-11T13:20:14.280Z,10.40
2023-01-11T13:22:49.244Z,10.50
2023-01-11T13:25:24.540Z,10.50
2023-01-11T13:27:56.091Z,10.50
2023-01-11T13:30:25.138Z,10.50
2023-01-11T13:33:19.728Z,10.40
2023-01-11T13:35:57.507Z,10.30
2023-01-11T13:38:48.089Z,10.40
2023-01-11T13:41:51.934Z,10.40
2023-01-11T13:44:30.373Z,10.50
2023-01-11T13:47:06.507Z,10.60
2023-01-11T13:50:09.379Z,10.60
2023-01-11T13:52:55.141Z,10.60
2023-01-11T13:56:11.347Z,10.70
2023-01-11T13:58:47.164Z,10.60
2023-01-11T14:01:20.372Z,10.70
2023-01-11T14:03:55.897Z,10.80
2023-01-11T14:06:40.911Z,10.90
2023-01-11T14:09:56.163Z,10.90
2023-01-11T14:13:35.541Z,10.80
2023-01-11T14:16:32.249Z,10.70
2023-01-11T14:19:30.953Z,10.70
2023-01-11T14:22:10.979Z,10.60
2023-01-11T14:25:05.877Z,10.50
2023-01-11T14:28:03.588Z,10.40
2023-01-11T14:30:58.010Z,10.30
2023-01-11T14:33:36.895Z,10.20
2023-01-11T14:36:44.117Z,10.20
2023-01-11T14:39:20.113Z,10.30
2023-01-11T14:42:05.136Z,10.30
2023-01-11T14:45:23.233Z,10.40
2023-01-11T14:48:13.186Z,10.40
2023-01-11T14:51:17.451Z,10.40
2023-01-11T14:54:02.731Z,10.30
2023-01-11T14:56:49.424Z,10.30
2023-01-11T14:59:33.696Z,10.20
2023-01-11T15:02:03.772Z,10.20
2023-01-11T15:04:56.836Z,10.20
2023-01-11T15:07:29.894Z,10.10
2023-01-11T15:10:00.280Z,10.10
2023-01-11T15:12:41.011Z,10.10
2023-01-11T15:15:19.707Z,10.10
2023-01-11T15:18:15.116Z,10.00
2023-01-11T15:21:04.836Z,10.00
2023-01-11T15:23:45.495Z,10.00
2023-01-11T15:26:16.364Z,9.90
2023-01-11T15:29:02.370Z,10.00
2023-01-11T15:32:04.081Z,10.00
2023-01-11T15:34:42.544Z,10.10
2023-01-11T15:37:39.235Z,10.00
2023-01-11T15:40:30.244Z,10.00
2023-01-11T15:43:36.265Z,9.90
2023-01-11T15:46:48.924Z,9.90
2023-01-11T15:49:59.697Z,9.90
2023-01-11T15:53:06.627Z,9.80
2023-01-11T15:56:27.795Z,9.80
2023-01-11T15:59:22.054Z,9.70
2023-01-11T16:02:13.479Z,9.60
2023-01-11T16:04:57.539Z,9.50
2023-01-11T16:08:03.621Z,9.50
2023-01-11T16:10:58.339Z,9.40
2023-01-11T16:13:45.404Z,9.40
2023-01-11T16:16:43.786Z,9.40
2023-01-11T16:19:21.713Z,9.40
2023-01-11T16:21:53.223Z,9.40
2023-01-11T16:24:29.557Z,9.30
2023-01-11T16:27:00.211Z,9.30
2023-01-11T16:29:38.000Z,9.30
2023-01-11T16:32:20.886Z,9.30
2023-01-11T16:34:52.024Z,9.20
2023-01-11T16:37:25.602Z,9.20
2023-01-11T16:40:01.809Z,9.10
2023-01-11T16:42:35.318Z,9.10
2023-01-11T16:45:07.356Z,9.00
2023-01-11T16:47:34.457Z,8.90
2023-01-11T16:50:26.110Z,8.90
2023-01-11T16:52:55.156Z,8.90
2023-01-11T16:55:36.903Z,8.90
2023-01-11T16:58:17.317Z,8.80
2023-01-11T17:01:13.489Z,8.90
2023-01-11T17:03:54.205Z,8.80
2023-01-11T17:06:24.086Z,8.80
2023-01-11T17:08:56.837Z,8.70
2023-01-11T17:11:37.073Z,8.60
2023-01-11T17:15:01.406Z,8.70
2023-01-11T17:17:34.384Z,8.60
2023-01-11T17:20:01.895Z,8.50
2023-01-11T17:22:33.855Z,8.50
2023-01-11T17:25:13.015Z,8.50
2023-01-11T17:27:45.365Z,8.50
2023-01-11T17:30:22.695Z,8.40
2023-01-11T17:32:53.141Z,8.30
2023-01-11T17:35:25.692Z,8.30
2023-01-11T17:38:01.302Z,8.30
2023-01-11T17:40:35.410Z,8.40
2023-01-11T17:43:39.384Z,8.40
2023-01-11T17:46:07.863Z,8.40
2023-01-11T17:48:35.645Z,8.30
2023-01-11T17:51:05.457Z,8.40
2023-01-11T17:53:36.134Z,8.40
2023-01-11T17:56:07.314Z,8.50
2023-01-11T17:58:38.692Z,8.50
2023-01-11T18:01:08.377Z,8.40
2023-01-11T18:03:54.403Z,8.50
2023-01-11T18:06:44.963Z,8.60
2023-01-11T18:09:31.451Z,8.60
2023-01-11T18:12:28.629Z,8.70
2023-01-11T18:15:02.774Z,8.70
2023-01-11T18:17:32.863Z,8.60
2023-01-11T18:20:25.161Z,8.70
2023-01-11T18:23:18.884Z,8.70
2023-01-11T18:25:46.980Z,8.80
2023-01-11T18:28:29.689Z,8.90
2023-01-11T18:31:02.135Z,8.90
2023-01-11T18:33:33.304Z,9.00
2023-01-11T18:36:04.399Z,9.00
2023-01-11T18:38:37.822Z,8.90
2023-01-11T18:41:27.777Z,9.00
2023-01-11T18:43:55.682Z,9.00
2023-01-11T18:46:24.257Z,9.00
2023-01-11T18:48:51.575Z,9.00
2023-01-11T18:51:36.686Z,9.00
2023-01-11T18:54:03.814Z,9.10
2023-01-11T18:56:32.444Z,9.30
2023-01-11T18:58:59.893Z,9.30
2023-01-11T19:01:26.991Z,9.30
2023-01-11T19:04:03.724Z,9.30
2023-01-11T19:06:31.037Z,9.50
2023-01-11T19:08:58.066Z,9.40
2023-01-11T19:11:27.008Z,9.40
2023-01-11T19:13:54.245Z,9.40
2023-01-11T19:16:23.672Z,9.30
2023-01-11T19:18:54.221Z,9.30
2023-01-11T19:21:23.760Z,9.30
2023-01-11T19:23:51.273Z,9.30
2023-01-11T19:26:18.361Z,9.30
2023-01-11T19:28:45.469Z,9.30
2023-01-11T19:31:12.779Z,9.30
2023-01-11T19:33:41.692Z,9.30
2023-01-11T19:36:11.086Z,9.30
2023-01-11T19:38:41.050Z,9.30
2023-01-11T19:41:10.359Z,9.30
2023-01-11T19:43:44.738Z,9.30
2023-01-11T19:46:15.064Z,9.30
2023-01-11T19:48:44.273Z,9.30
2023-01-11T19:51:13.124Z,9.30
2023-01-11T19:53:41.296Z,9.30
2023-01-11T19:56:09.397Z,9.30
2023-01-11T19:58:37.510Z,9.30
2023-01-11T20:01:12.259Z,9.30
2023-01-11T20:03:45.450Z,9.40
2023-01-11T20:06:12.979Z,9.30
2023-01-11T20:08:41.279Z,9.30
2023-01-11T20:11:14.122Z,9.20
2023-01-11T20:13:42.311Z,9.20
2023-01-11T20:16:14.088Z,9.10
2023-01-11T20:18:42.412Z,9.00
2023-01-11T20:21:11.030Z,9.00
2023-01-11T20:23:38.226Z,9.00
2023-01-11T20:26:07.683Z,8.90
2023-01-11T20:28:34.907Z,8.80
2023-01-11T20:31:07.231Z,8.70
2023-01-11T20:33:35.076Z,8.80
2023-01-11T20:36:17.623Z,8.80
2023-01-11T20:38:46.583Z,8.80
2023-01-11T20:41:37.118Z,8.80
2023-01-11T20:44:06.478Z,8.80
2023-01-11T20:46:37.215Z,8.80
2023-01-11T20:49:05.967Z,8.80
2023-01-11T20:51:33.387Z,8.80
2023-01-11T20:54:00.677Z,8.80
2023-01-11T20:56:28.136Z,8.80
2023-01-11T20:58:55.445Z,8.80
2023-01-11T21:01:28.475Z,8.80
2023-01-11T21:04:00.286Z,8.80
2023-01-11T21:06:28.050Z,8.90
2023-01-11T21:08:58.375Z,8.90
2023-01-11T21:11:26.951Z,8.90
2023-01-11T21:13:55.901Z,9.00
2023-01-11T21:16:27.415Z,9.10
2023-01-11T21:19:04.014Z,9.10
2023-01-11T21:21:34.553Z,9.20
2023-01-11T21:24:05.002Z,9.20
2023-01-11T21:26:33.302Z,9.30
2023-01-11T21:29:03.761Z,9.30
2023-01-11T21:31:35.049Z,9.30
2023-01-11T21:34:02.931Z,9.30
2023-01-11T21:36:31.864Z,9.30
2023-01-11T21:39:00.312Z,9.40
2023-01-11T21:41:49.293Z,9.40
2023-01-11T21:44:18.875Z,9.40
2023-01-11T21:46:46.823Z,9.30
2023-01-11T21:49:15.225Z,9.30
2023-01-11T21:51:43.512Z,9.30
2023-01-11T21:54:13.536Z,9.30
2023-01-11T21:56:44.358Z,9.20
2023-01-11T21:59:12.178Z,9.10
2023-01-11T22:01:42.509Z,9.10
2023-01-11T22:04:13.645Z,9.10
2023-01-11T22:06:44.076Z,9.00
2023-01-11T22:09:12.299Z,8.90
2023-01-11T22:11:40.269Z,8.90
2023-01-11T22:14:08.804Z,8.80
2023-01-11T22:16:37.433Z,8.60
2023-01-11T22:19:07.774Z,8.50
2023-01-11T22:21:37.041Z,8.50
2023-01-11T22:24:05.832Z,8.40
2023-01-11T22:26:35.799Z,8.30
2023-01-11T22:29:12.289Z,8.20
2023-01-11T22:31:51.024Z,8.10
2023-01-11T22:34:18.986Z,8.10
2023-01-11T22:36:46.418Z,8.10
2023-01-11T22:39:15.292Z,8.10
2023-01-11T22:41:45.880Z,8.10
2023-01-11T22:44:13.664Z,8.10
2023-01-11T22:46:41.430Z,8.00
2023-01-11T22:49:09.030Z,8.00
2023-01-11T22:51:36.428Z,8.00
2023-01-11T22:54:04.737Z,8.00
2023-01-11T22:56:34.725Z,8.00
2023-01-11T22:59:02.219Z,8.00
2023-01-11T23:01:41.000Z,8.00
2023-01-11T23:04:12.266Z,8.10
2023-01-11T23:06:44.304Z,8.10
2023-01-11T23:09:16.413Z,8.10
2023-01-11T23:12:03.051Z,8.20
2023-01-11T23:14:32.862Z,8.20
2023-01-11T23:17:07.167Z,8.30
2023-01-11T23:19:36.794Z,8.30
2023-01-11T23:22:05.181Z,8.30
2023-01-11T23:24:32.763Z,8.30
2023-01-11T23:27:00.032Z,8.30
2023-01-11T23:29:27.233Z,8.30
2023-01-11T23:31:54.311Z,8.30
2023-01-11T23:34:21.723Z,8.30
2023-01-11T23:36:48.813Z,8.30
2023-01-11T23:39:20.529Z,8.30
2023-01-11T23:42:06.422Z,8.30
2023-01-11T23:44:33.781Z,8.20
2023-01-11T23:47:19.481Z,8.20
2023-01-11T23:49:47.947Z,8.20
2023-01-11T23:52:16.457Z,8.20
2023-01-11T23:54:45.410Z,8.20
2023-01-11T23:57:13.870Z,8.20
2023-01-11T23:59:42.415Z,8.20
